Time;durP1;ratioP1;P1;durP2;ratioP2;P2;SDS_P1;SDS_P2;PMS_P1;PMS_P2;Temp;Humidity;BMP_temperature;BMP_pressure;BME280_temperature;BME280_humidity;BME280_pressure;Samples;Min_cycle;Max_cycle;Signal;HPM_P1;HPM_P2
2023/04/09 00:02:19;;;;;;;63.83;43.90;;;153.80;2252.80;;;;;;5049667;28;20036;-62
2023/04/09 00:04:45;;;;;;;140.15;86.20;;;153.80;2252.80;;;;;;5049458;28;20410;-61
2023/04/09 00:07:11;;;;;;;91.30;58.08;;;153.90;2252.80;;;;;;5049137;28;20035;-61
2023/04/09 00:09:36;;;;;;;68.18;46.92;;;153.80;2252.80;;;;;;5049429;28;20033;-61
2023/04/09 00:12:02;;;;;;;63.47;42.05;;;128.90;2252.80;;;;;;5048805;28;20036;-69
2023/04/09 00:14:28;;;;;;;58.42;40.45;;;128.90;2252.80;;;;;;5049514;28;20490;-63
2023/04/09 00:16:54;;;;;;;64.35;42.63;;;128.80;2252.80;;;;;;5049223;28;20013;-62
2023/04/09 00:19:20;;;;;;;67.07;44.03;;;153.60;2252.80;;;;;;5032640;28;20025;-69
2023/04/09 00:21:45;;;;;;;64.03;43.65;;;153.60;2252.80;;;;;;5044044;28;20040;-63
2023/04/09 00:24:11;;;;;;;91.43;58.08;;;153.80;2252.80;;;;;;5049398;28;20577;-60
2023/04/09 00:26:37;;;;;;;84.13;53.58;;;153.80;2252.80;;;;;;5049235;28;20060;-59
2023/04/09 00:29:03;;;;;;;63.63;45.53;;;153.90;2252.80;;;;;;5049343;28;20482;-62
2023/04/09 00:31:29;;;;;;;64.38;41.25;;;154.00;2252.80;;;;;;5049302;28;20086;-61
2023/04/09 00:33:55;;;;;;;64.90;43.30;;;153.80;2252.80;;;;;;5048844;28;20024;-59
2023/04/09 00:36:20;;;;;;;66.95;44.78;;;128.90;2252.80;;;;;;5048938;28;20117;-59
2023/04/09 00:38:47;;;;;;;64.55;42.75;;;128.70;2252.80;;;;;;5048584;28;20098;-59
2023/04/09 00:41:13;;;;;;;64.72;42.30;;;128.60;2252.80;;;;;;5049114;28;20048;-59
2023/04/09 00:43:38;;;;;;;62.20;42.63;;;128.60;2252.80;;;;;;5048746;28;20435;-63
2023/04/09 00:46:05;;;;;;;61.60;41.00;;;128.60;2252.80;;;;;;5048287;28;20564;-63
2023/04/09 00:48:31;;;;;;;59.05;39.97;;;128.50;2252.80;;;;;;5049079;28;20029;-63
2023/04/09 00:50:56;;;;;;;59.15;40.08;;;128.80;2252.80;;;;;;5048154;28;20021;-63
2023/04/09 00:53:22;;;;;;;59.38;42.65;;;128.70;2252.80;;;;;;5048672;28;20033;-63
2023/04/09 00:55:48;;;;;;;60.40;43.60;;;128.90;2252.80;;;;;;5048626;28;20028;-63
2023/04/09 00:58:14;;;;;;;56.75;39.28;;;128.90;2252.80;;;;;;5048447;28;20021;-63
2023/04/09 01:00:40;;;;;;;57.42;39.58;;;153.70;2252.80;;;;;;5048916;28;20013;-63
2023/04/09 01:03:06;;;;;;;58.90;39.65;;;153.70;2252.80;;;;;;5048258;28;20414;-63
2023/04/09 01:06:12;;;;;;;97.53;63.83;;;153.70;2252.80;;;;;;5048820;28;20441;-65
2023/04/09 01:08:46;;;;;;;55.03;39.13;;;153.90;2252.80;;;;;;5048596;28;20047;-63
2023/04/09 01:11:34;;;;;;;59.33;38.50;;;153.90;2252.80;;;;;;5048650;28;20024;-63
2023/04/09 01:14:15;;;;;;;56.72;40.65;;;153.80;2252.80;;;;;;5048666;28;20025;-64
2023/04/09 01:16:46;;;;;;;59.15;39.95;;;154.10;2252.80;;;;;;5035498;28;20021;-64
2023/04/09 01:19:35;;;;;;;55.08;39.55;;;154.10;2252.80;;;;;;5048432;28;20021;-64
2023/04/09 01:22:05;;;;;;;66.07;44.67;;;154.10;2252.80;;;;;;5021181;28;20383;-65
2023/04/09 01:24:54;;;;;;;56.92;39.45;;;154.00;2252.80;;;;;;5045967;28;20047;-64
2023/04/09 01:27:20;;;;;;;53.00;37.15;;;153.70;2252.80;;;;;;5046238;28;20626;-65
2023/04/09 01:29:50;;;;;;;56.22;40.45;;;153.60;2252.80;;;;;;5045351;28;20024;-65
2023/04/09 01:32:18;;;;;;;63.47;41.63;;;128.80;2252.80;;;;;;5045425;28;20391;-64
2023/04/09 01:34:46;;;;;;;67.88;43.92;;;128.70;2252.80;;;;;;5041019;28;20076;-65
2023/04/09 01:37:14;;;;;;;64.38;43.10;;;128.80;2252.80;;;;;;5038417;28;20036;-64
2023/04/09 01:39:41;;;;;;;62.83;41.92;;;128.70;2252.80;;;;;;5045517;28;20081;-66
2023/04/09 01:42:11;;;;;;;59.38;40.80;;;128.60;2252.80;;;;;;5045920;28;20029;-64
2023/04/09 01:44:38;;;;;;;57.95;38.88;;;128.60;2252.80;;;;;;5045601;28;20533;-65
2023/04/09 01:47:05;;;;;;;52.05;35.63;;;128.50;2252.80;;;;;;5045772;28;20033;-65
2023/04/09 01:49:32;;;;;;;54.72;38.35;;;128.40;2252.80;;;;;;5046124;28;20082;-62
2023/04/09 01:51:58;;;;;;;53.65;38.90;;;128.50;2252.80;;;;;;5044809;28;20041;-62
2023/04/09 01:54:24;;;;;;;60.42;38.75;;;128.50;2252.80;;;;;;5045924;28;20028;-62
2023/04/09 01:56:49;;;;;;;59.13;36.67;;;128.70;2252.80;;;;;;5047259;28;20028;-62
2023/04/09 01:59:15;;;;;;;59.78;38.58;;;128.80;2252.80;;;;;;5050917;28;20094;-63
2023/04/09 02:01:53;;;;;;;57.05;37.33;;;128.80;2252.80;;;;;;5051600;28;20049;-63
2023/04/09 02:04:31;;;;;;;59.58;37.75;;;128.70;2252.80;;;;;;5051952;28;20083;-62
2023/04/09 02:07:00;;;;;;;53.80;37.60;;;128.60;2252.80;;;;;;5051128;28;20497;-63
2023/04/09 02:09:30;;;;;;;57.65;35.90;;;128.50;2252.80;;;;;;5051656;28;20033;-63
2023/04/09 02:12:00;;;;;;;60.78;39.58;;;128.40;2252.80;;;;;;5051551;28;20017;-62
2023/04/09 02:14:27;;;;;;;54.70;35.55;;;128.50;2252.80;;;;;;5051652;28;20087;-63
2023/04/09 02:16:53;;;;;;;56.75;37.42;;;128.40;2252.80;;;;;;5038479;28;20360;-64
2023/04/09 02:19:18;;;;;;;57.47;37.60;;;128.50;2252.80;;;;;;5051586;28;20028;-65
2023/04/09 02:21:45;;;;;;;57.55;36.83;;;128.40;2252.80;;;;;;5050376;28;20375;-66
2023/04/09 02:24:11;;;;;;;64.18;40.42;;;128.30;2252.80;;;;;;5051528;28;20017;-63
2023/04/09 02:26:36;;;;;;;55.83;36.80;;;128.10;2252.80;;;;;;5051465;28;20028;-63
2023/04/09 02:29:02;;;;;;;57.47;38.33;;;128.20;2252.80;;;;;;5052066;28;20029;-61
2023/04/09 02:31:28;;;;;;;56.38;36.85;;;128.10;1920.00;;;;;;5050871;28;20017;-64
2023/04/09 02:33:54;;;;;;;59.30;38.75;;;128.00;2048.00;;;;;;5039580;28;20030;-64
2023/04/09 02:36:20;;;;;;;57.65;40.03;;;128.10;2252.80;;;;;;5049270;28;20051;-64
2023/04/09 02:38:45;;;;;;;58.05;40.47;;;128.30;2252.80;;;;;;5050734;28;20487;-61
2023/04/09 02:41:11;;;;;;;67.35;42.05;;;128.50;2252.80;;;;;;5051001;28;20021;-61
2023/04/09 02:43:37;;;;;;;58.97;40.80;;;128.70;2252.80;;;;;;5051170;28;20036;-61
2023/04/09 02:46:02;;;;;;;60.10;43.25;;;128.60;2252.80;;;;;;5051292;28;20475;-61
2023/04/09 02:48:28;;;;;;;71.75;45.38;;;153.80;2252.80;;;;;;5050800;28;20063;-61
2023/04/09 02:50:54;;;;;;;65.55;44.47;;;128.80;2252.80;;;;;;5050566;28;20029;-62
2023/04/09 02:53:22;;;;;;;65.60;44.10;;;128.70;2252.80;;;;;;5051004;28;20036;-61
2023/04/09 02:55:48;;;;;;;62.45;41.70;;;128.60;2252.80;;;;;;5050586;28;20041;-61
2023/04/09 02:58:14;;;;;;;74.18;50.38;;;128.60;2252.80;;;;;;5050872;28;20517;-62
2023/04/09 03:00:40;;;;;;;76.03;49.80;;;128.50;2252.80;;;;;;5050870;28;20020;-61
2023/04/09 03:03:05;;;;;;;60.78;40.15;;;128.40;2252.80;;;;;;5050591;28;20372;-62
2023/04/09 03:05:31;;;;;;;92.03;59.03;;;128.40;2252.80;;;;;;5050537;28;20044;-61
2023/04/09 03:07:57;;;;;;;70.30;46.15;;;128.60;2252.80;;;;;;5049870;28;20039;-61
2023/04/09 03:10:22;;;;;;;69.80;43.05;;;128.80;2252.80;;;;;;5050681;28;20390;-61
2023/04/09 03:12:48;;;;;;;65.30;40.83;;;128.80;2252.80;;;;;;5050648;28;20017;-61
2023/04/09 03:15:14;;;;;;;80.10;51.80;;;128.90;2252.80;;;;;;5050145;28;20024;-61
2023/04/09 03:17:39;;;;;;;61.65;40.38;;;128.90;2252.80;;;;;;5050657;28;20036;-61
2023/04/09 03:20:06;;;;;;;63.22;40.25;;;153.60;2252.80;;;;;;5049873;28;20029;-61
2023/04/09 03:22:38;;;;;;;64.55;39.65;;;128.90;2252.80;;;;;;5050150;28;20126;-62
2023/04/09 03:25:05;;;;;;;57.20;38.30;;;128.80;2252.80;;;;;;5050155;28;20525;-61
2023/04/09 03:27:31;;;;;;;52.28;36.95;;;128.80;2252.80;;;;;;5050777;28;20138;-61
2023/04/09 03:29:57;;;;;;;57.05;39.13;;;128.80;2252.80;;;;;;5049958;28;20049;-63
2023/04/09 03:32:23;;;;;;;73.30;46.28;;;128.90;2252.80;;;;;;5050154;28;20198;-62
2023/04/09 03:34:49;;;;;;;70.97;44.40;;;128.90;2252.80;;;;;;5049925;28;20234;-61
2023/04/09 03:37:15;;;;;;;64.65;43.40;;;153.70;2252.80;;;;;;5049760;28;20029;-61
2023/04/09 03:39:40;;;;;;;62.28;40.33;;;153.80;2252.80;;;;;;5049914;28;20395;-61
2023/04/09 03:42:06;;;;;;;62.28;39.55;;;153.70;2252.80;;;;;;5050165;28;20039;-62
2023/04/09 03:44:32;;;;;;;61.50;40.67;;;153.80;2252.80;;;;;;5049810;28;20021;-62
2023/04/09 03:46:58;;;;;;;61.15;38.95;;;153.70;2252.80;;;;;;5049835;28;20028;-62
2023/04/09 03:49:23;;;;;;;59.60;41.25;;;153.70;2252.80;;;;;;5049854;28;20450;-61
2023/04/09 03:51:49;;;;;;;62.13;38.63;;;153.70;2252.80;;;;;;5049640;28;20068;-62
2023/04/09 03:54:15;;;;;;;65.03;42.72;;;153.70;2252.80;;;;;;5048487;28;20025;-64
2023/04/09 03:56:41;;;;;;;61.80;40.22;;;128.90;2252.80;;;;;;5049925;28;20435;-61
2023/04/09 03:59:06;;;;;;;51.38;36.13;;;128.90;2252.80;;;;;;5049468;28;20063;-62
2023/04/09 04:01:33;;;;;;;62.13;40.55;;;128.90;2252.80;;;;;;5050189;28;20075;-63
2023/04/09 04:03:59;;;;;;;58.97;37.72;;;128.80;2252.80;;;;;;5048256;28;20068;-62
2023/04/09 04:06:26;;;;;;;52.35;35.25;;;128.80;2252.80;;;;;;5049162;28;20072;-62
2023/04/09 04:08:51;;;;;;;57.90;38.42;;;128.80;2252.80;;;;;;5048422;28;20041;-62
2023/04/09 04:11:17;;;;;;;54.72;38.42;;;128.70;2252.80;;;;;;5048916;28;20067;-62
2023/04/09 04:13:43;;;;;;;57.53;39.67;;;128.60;2252.80;;;;;;5049488;28;20024;-62
2023/04/09 04:16:09;;;;;;;52.92;35.10;;;128.60;2252.80;;;;;;5049176;28;20360;-62
2023/04/09 04:18:35;;;;;;;48.75;37.15;;;128.70;2252.80;;;;;;5042882;28;20018;-62
2023/04/09 04:21:01;;;;;;;55.88;37.95;;;128.40;2252.80;;;;;;5042202;28;20514;-62
2023/04/09 04:23:27;;;;;;;54.25;36.70;;;128.50;2252.80;;;;;;5048620;28;20028;-63
2023/04/09 04:25:53;;;;;;;55.15;38.15;;;128.50;2252.80;;;;;;5049411;28;20232;-62
2023/04/09 04:28:18;;;;;;;59.00;37.28;;;128.60;2252.80;;;;;;5049310;28;20029;-62
2023/04/09 04:30:44;;;;;;;57.83;40.25;;;128.50;2252.80;;;;;;5049528;28;20033;-62
2023/04/09 04:33:10;;;;;;;56.95;39.53;;;128.30;2252.80;;;;;;5048592;28;20051;-62
2023/04/09 04:35:36;;;;;;;61.53;42.47;;;128.60;2252.80;;;;;;5049151;28;20112;-62
2023/04/09 04:38:01;;;;;;;62.55;40.70;;;128.80;2252.80;;;;;;5049075;28;20099;-62
2023/04/09 04:40:27;;;;;;;56.92;36.05;;;153.70;2252.80;;;;;;5048825;28;20040;-62
2023/04/09 04:42:53;;;;;;;56.53;35.10;;;153.60;2252.80;;;;;;5048849;28;20029;-62
2023/04/09 04:45:19;;;;;;;52.83;35.65;;;153.60;2252.80;;;;;;5049249;28;20033;-62
2023/04/09 04:47:44;;;;;;;53.10;37.63;;;153.60;2252.80;;;;;;5035883;28;20043;-62
2023/04/09 04:50:10;;;;;;;47.83;33.20;;;153.70;2252.80;;;;;;5036412;28;20467;-65
2023/04/09 04:52:37;;;;;;;47.85;32.80;;;153.90;2252.80;;;;;;5035086;28;20017;-64
2023/04/09 04:55:03;;;;;;;52.60;33.08;;;154.40;2252.80;;;;;;5048477;28;20029;-62
2023/04/09 04:57:29;;;;;;;47.92;31.48;;;154.50;2252.80;;;;;;5042908;28;20067;-63
2023/04/09 04:59:55;;;;;;;50.67;35.65;;;179.20;2252.80;;;;;;5028924;28;20030;-63
2023/04/09 05:02:20;;;;;;;47.05;34.60;;;179.20;2252.80;;;;;;5048427;28;20017;-62
2023/04/09 05:04:46;;;;;;;52.08;35.90;;;179.40;2252.80;;;;;;5048589;28;20036;-62
2023/04/09 05:07:12;;;;;;;47.05;33.70;;;179.70;2252.80;;;;;;5048582;28;20025;-62
2023/04/09 05:09:37;;;;;;;41.83;29.42;;;205.10;2252.80;;;;;;5048043;28;20029;-63
2023/04/09 05:12:03;;;;;;;40.85;31.15;;;230.40;2252.80;;;;;;5048727;28;20216;-63
2023/04/09 05:14:29;;;;;;;42.80;31.08;;;230.70;2252.80;;;;;;5049159;28;20383;-63
2023/04/09 05:16:54;;;;;;;43.33;30.95;;;230.50;2252.80;;;;;;5048704;28;20025;-63
2023/04/09 05:19:20;;;;;;;42.67;30.77;;;230.50;2252.80;;;;;;5049011;28;20025;-63
2023/04/09 05:21:46;;;;;;;41.63;30.70;;;205.70;2252.80;;;;;;5047498;28;20064;-62
2023/04/09 05:24:12;;;;;;;43.28;31.10;;;205.40;2252.80;;;;;;5048437;28;20044;-63
2023/04/09 05:26:37;;;;;;;41.45;29.90;;;205.50;2252.80;;;;;;5048465;28;20029;-63
2023/04/09 05:29:03;;;;;;;39.40;28.63;;;205.60;2252.80;;;;;;5048943;28;20028;-66
2023/04/09 05:31:29;;;;;;;42.75;30.30;;;230.40;2252.80;;;;;;5051393;28;20025;-65
2023/04/09 05:33:54;;;;;;;38.55;28.20;;;230.80;2252.80;;;;;;5052067;28;20070;-64
2023/04/09 05:36:20;;;;;;;62.78;50.13;;;231.20;2252.80;;;;;;5039090;28;20032;-63
2023/04/09 05:38:46;;;;;;;68.38;51.60;;;231.30;2252.80;;;;;;5052069;28;20071;-64
2023/04/09 05:41:12;;;;;;;66.85;47.60;;;231.30;2252.80;;;;;;5052132;28;20082;-64
2023/04/09 05:43:38;;;;;;;58.58;43.15;;;256.60;2252.80;;;;;;5052008;28;20060;-64
2023/04/09 05:46:04;;;;;;;75.07;53.97;;;282.00;2278.40;;;;;;5052287;28;20566;-64
2023/04/09 05:48:30;;;;;;;67.80;53.00;;;307.80;2304.00;;;;;;5052727;28;20032;-64
2023/04/09 05:50:56;;;;;;;72.72;60.72;;;333.20;2329.60;;;;;;5051323;28;20418;-64
2023/04/09 05:53:21;;;;;;;76.18;63.45;;;333.20;2329.60;;;;;;5052257;28;20025;-64
2023/04/09 05:55:50;;;;;;;79.60;63.28;;;332.80;2329.60;;;;;;5051637;28;20032;-65
2023/04/09 05:58:17;;;;;;;79.45;60.50;;;307.90;2304.00;;;;;;5052080;28;20082;-63
2023/04/09 06:00:43;;;;;;;78.25;59.15;;;307.20;2304.00;;;;;;5052273;28;20414;-64
2023/04/09 06:03:09;;;;;;;74.40;59.17;;;281.80;2278.40;;;;;;5051385;28;20032;-66
2023/04/09 06:05:34;;;;;;;75.57;57.58;;;256.90;2252.80;;;;;;5051234;28;20033;-63
2023/04/09 06:08:01;;;;;;;67.40;52.97;;;256.80;2252.80;;;;;;5052089;28;20079;-64
2023/04/09 06:10:26;;;;;;;65.47;51.08;;;256.50;2252.80;;;;;;5051475;28;20025;-65
2023/04/09 06:12:52;;;;;;;70.10;53.40;;;256.50;2252.80;;;;;;5051831;28;20136;-66
2023/04/09 06:15:18;;;;;;;62.85;51.20;;;256.90;2252.80;;;;;;5051635;28;20036;-65
2023/04/09 06:17:44;;;;;;;66.40;51.95;;;256.90;2252.80;;;;;;5051748;28;20483;-65
2023/04/09 06:20:10;;;;;;;68.03;52.92;;;256.90;2252.80;;;;;;5051221;28;20035;-65
2023/04/09 06:22:36;;;;;;;67.28;49.95;;;256.90;2252.80;;;;;;5051707;28;20017;-64
2023/04/09 06:25:02;;;;;;;63.53;48.38;;;256.90;2252.80;;;;;;5051347;28;20056;-62
2023/04/09 06:27:28;;;;;;;65.25;50.30;;;256.60;2252.80;;;;;;5051212;28;20435;-63
2023/04/09 06:29:54;;;;;;;60.08;45.65;;;256.60;2252.80;;;;;;5051375;28;20111;-64
2023/04/09 06:32:19;;;;;;;59.45;44.53;;;256.70;2252.80;;;;;;5051091;28;20029;-64
2023/04/09 06:34:45;;;;;;;134.98;118.35;;;256.70;2252.80;;;;;;5050988;28;20359;-64
2023/04/09 06:37:11;;;;;;;73.05;54.63;;;256.90;2252.80;;;;;;5051567;28;20082;-64
2023/04/09 06:39:37;;;;;;;87.65;61.03;;;281.70;2278.40;;;;;;5050426;28;20041;-64
2023/04/09 06:42:02;;;;;;;96.60;66.85;;;281.80;2278.40;;;;;;5050819;28;20025;-65
2023/04/09 06:44:29;;;;;;;109.60;80.30;;;282.10;2278.40;;;;;;5050529;28;20021;-64
2023/04/09 06:46:55;;;;;;;97.90;74.00;;;282.30;2278.40;;;;;;5051006;28;20078;-65
2023/04/09 06:49:21;;;;;;;102.00;75.38;;;282.20;2278.40;;;;;;5051376;28;20021;-63
2023/04/09 06:51:47;;;;;;;92.45;69.03;;;307.30;2304.00;;;;;;5051032;28;20021;-69
2023/04/09 06:54:13;;;;;;;94.35;71.78;;;307.40;2304.00;;;;;;5050655;28;20025;-63
2023/04/09 06:56:38;;;;;;;107.78;82.15;;;307.50;2304.00;;;;;;5036123;28;20113;-60
2023/04/09 06:59:04;;;;;;;100.47;76.07;;;332.80;2329.60;;;;;;5051047;28;20025;-60
2023/04/09 07:01:30;;;;;;;85.60;65.10;;;332.90;2329.60;;;;;;5050834;28;20021;-59
2023/04/09 07:03:56;;;;;;;75.57;58.78;;;307.80;2304.00;;;;;;5050288;28;20025;-60
2023/04/09 07:06:21;;;;;;;89.38;69.28;;;308.10;2304.00;;;;;;5050336;28;20037;-59
2023/04/09 07:08:47;;;;;;;90.72;68.38;;;333.40;2329.60;;;;;;5045406;28;20032;-62
2023/04/09 07:11:15;;;;;;;99.82;79.90;;;358.50;2329.60;;;;;;5029626;28;20468;-61
2023/04/09 07:13:41;;;;;;;102.15;83.18;;;358.60;2329.60;;;;;;5035678;28;20056;-60
2023/04/09 07:16:07;;;;;;;95.75;71.97;;;358.50;2329.60;;;;;;5050494;28;20021;-60
2023/04/09 07:18:33;;;;;;;81.07;67.32;;;333.50;2329.60;;;;;;5050445;28;20017;-60
2023/04/09 07:20:59;;;;;;;85.55;67.45;;;358.70;2329.60;;;;;;5050434;28;20056;-60
2023/04/09 07:23:24;;;;;;;88.28;67.45;;;358.80;2329.60;;;;;;5050069;28;20107;-61
2023/04/09 07:25:50;;;;;;;86.88;66.97;;;359.10;2329.60;;;;;;5041993;28;20072;-60
2023/04/09 07:28:16;;;;;;;91.22;72.85;;;359.30;2304.00;;;;;;5030843;28;20022;-60
2023/04/09 07:30:42;;;;;;;93.78;75.97;;;359.00;2278.40;;;;;;5049648;28;20025;-59
2023/04/09 07:33:07;;;;;;;97.75;74.03;;;358.80;2329.60;;;;;;5050012;28;20025;-61
2023/04/09 07:35:33;;;;;;;98.47;74.93;;;358.80;2329.60;;;;;;5047944;28;20037;-67
2023/04/09 07:37:59;;;;;;;95.13;72.78;;;358.40;2329.60;;;;;;5047962;28;20044;-62
2023/04/09 07:40:25;;;;;;;91.38;74.60;;;358.80;2329.60;;;;;;5048122;28;20493;-61
2023/04/09 07:42:52;;;;;;;94.93;75.32;;;358.90;2329.60;;;;;;5048538;28;20113;-60
2023/04/09 07:45:18;;;;;;;93.07;74.03;;;358.40;2329.60;;;;;;5048157;28;20084;-61
2023/04/09 07:47:44;;;;;;;104.25;78.93;;;333.60;2329.60;;;;;;5044715;28;20072;-62
2023/04/09 07:50:10;;;;;;;93.63;82.75;;;333.50;2329.60;;;;;;5028256;28;20057;-65
2023/04/09 07:52:36;;;;;;;92.35;66.32;;;333.40;2329.60;;;;;;5028234;28;20111;-62
2023/04/09 07:55:02;;;;;;;1243.15;756.65;;;333.30;2329.60;;;;;;5038759;28;20459;-62
2023/04/09 07:57:31;;;;;;;128.95;90.15;;;333.70;2329.60;;;;;;5048199;28;20020;-64
2023/04/09 07:59:57;;;;;;;83.05;66.35;;;358.90;2329.60;;;;;;5041099;28;20032;-65
2023/04/09 08:02:23;;;;;;;77.13;65.20;;;410.00;2278.40;;;;;;5041288;28;20108;-62
2023/04/09 08:04:48;;;;;;;78.55;66.35;;;435.60;2073.60;;;;;;5047401;28;20467;-63
2023/04/09 08:07:14;;;;;;;71.88;60.00;;;436.10;2022.40;;;;;;5034513;28;20035;-65
2023/04/09 08:09:40;;;;;;;63.55;56.38;;;461.60;1945.60;;;;;;5048112;28;20067;-66
2023/04/09 08:12:06;;;;;;;70.72;55.15;;;512.30;1817.60;;;;;;5039161;28;20064;-72
2023/04/09 08:14:31;;;;;;;57.00;50.83;;;538.50;1715.20;;;;;;5039974;28;20021;-70
2023/04/09 08:16:58;;;;;;;54.47;48.40;;;563.30;1689.60;;;;;;5048051;28;20527;-73
2023/04/09 08:19:24;;;;;;;56.92;50.78;;;512.70;1689.60;;;;;;5028623;28;20391;-71
2023/04/09 08:21:50;;;;;;;58.95;50.90;;;538.00;1689.60;;;;;;5044851;28;20021;-69
2023/04/09 08:24:16;;;;;;;46.70;41.63;;;563.40;1638.40;;;;;;5047676;28;20028;-69
2023/04/09 08:26:42;;;;;;;50.78;45.08;;;563.20;1612.80;;;;;;5047167;28;20029;-71
2023/04/09 08:29:09;;;;;;;264.73;194.98;;;537.90;1612.80;;;;;;5043375;28;20072;-69
2023/04/09 08:31:36;;;;;;;56.40;50.85;;;563.80;1561.60;;;;;;5037886;28;20053;-71
2023/04/09 08:34:02;;;;;;;46.42;41.47;;;563.30;1587.20;;;;;;5036387;28;20021;-68
2023/04/09 08:36:27;;;;;;;45.15;40.45;;;588.90;1536.00;;;;;;5026373;28;20159;-72
2023/04/09 08:38:54;;;;;;;42.55;38.30;;;614.60;1484.80;;;;;;5030907;28;20141;-72
2023/04/09 08:41:23;;;;;;;40.92;37.13;;;640.00;1382.40;;;;;;5038714;28;20030;-71
2023/04/09 08:43:51;;;;;;;48.65;44.03;;;615.20;1433.60;;;;;;5042134;28;20032;-70
2023/04/09 08:46:18;;;;;;;39.47;35.50;;;614.80;1382.40;;;;;;5047409;28;20372;-70
2023/04/09 08:48:45;;;;;;;33.83;30.65;;;588.90;1459.20;;;;;;5039087;28;20028;-68
2023/04/09 08:51:19;;;;;;;32.90;29.70;;;563.60;1510.40;;;;;;5042340;28;20029;-68
2023/04/09 08:53:54;;;;;;;37.83;34.03;;;512.30;1587.20;;;;;;5041963;28;20033;-70
2023/04/09 08:56:23;;;;;;;37.42;33.47;;;512.40;1612.80;;;;;;5031427;28;20017;-68
2023/04/09 08:58:48;;;;;;;40.55;36.28;;;487.20;1587.20;;;;;;5045890;28;20518;-73
2023/04/09 09:01:24;;;;;;;42.70;38.30;;;461.20;1664.00;;;;;;5026617;28;20033;-71
2023/04/09 09:04:00;;;;;;;43.17;36.28;;;436.10;1689.60;;;;;;5024948;28;20112;-74
2023/04/09 09:06:28;;;;;;;37.65;32.92;;;461.00;1715.20;;;;;;5038499;28;20045;-73
2023/04/09 09:09:09;;;;;;;47.47;42.47;;;410.20;1740.80;;;;;;5051240;28;20098;-74
2023/04/09 09:11:40;;;;;;;38.40;32.95;;;409.80;1817.60;;;;;;5051431;28;20029;-73
2023/04/09 09:14:07;;;;;;;31.80;28.42;;;409.90;1792.00;;;;;;5051271;28;20118;-73
2023/04/09 09:16:43;;;;;;;33.10;27.02;;;409.60;1792.00;;;;;;5051220;28;20021;-72
2023/04/09 09:19:27;;;;;;;40.17;32.05;;;409.70;1792.00;;;;;;5050637;28;20040;-72
2023/04/09 09:21:56;;;;;;;;;;;384.30;1843.20;;;;;;5049192;28;20021;-73
2023/04/09 09:24:22;;;;;;;45.70;39.45;;;384.20;1894.40;;;;;;5045043;28;19916;-72
2023/04/09 09:26:48;;;;;;;51.05;42.35;;;359.30;1920.00;;;;;;5033272;28;20025;-74
2023/04/09 09:29:14;;;;;;;46.55;37.13;;;359.30;1945.60;;;;;;5033020;28;20040;-74
2023/04/09 09:31:51;;;;;;;42.22;35.75;;;359.10;1945.60;;;;;;5038788;28;20021;-73
2023/04/09 09:34:18;;;;;;;45.78;39.45;;;359.30;1945.60;;;;;;5034029;28;20086;-74
2023/04/09 09:36:44;;;;;;;39.50;31.52;;;384.30;1971.20;;;;;;5050786;28;20471;-71
2023/04/09 09:39:11;;;;;;;44.50;36.63;;;358.90;1971.20;;;;;;5050414;28;20052;-72
2023/04/09 09:41:39;;;;;;;47.05;37.75;;;359.30;1971.20;;;;;;5031991;28;20033;-71
2023/04/09 09:44:06;;;;;;;41.05;35.42;;;384.10;1945.60;;;;;;5043973;28;20108;-73
2023/04/09 09:46:41;;;;;;;41.35;33.17;;;384.50;1945.60;;;;;;5050281;28;20041;-71
2023/04/09 09:49:07;;;;;;;50.47;39.47;;;384.40;1920.00;;;;;;5050362;28;20036;-71
2023/04/09 09:51:40;;;;;;;70.80;50.72;;;384.10;1945.60;;;;;;5050807;28;20025;-74
2023/04/09 09:54:11;;;;;;;52.20;42.13;;;359.10;1971.20;;;;;;5033433;28;20060;-71
2023/04/09 09:56:38;;;;;;;53.88;45.40;;;358.90;2048.00;;;;;;5024765;28;20293;-73
2023/04/09 09:59:16;;;;;;;56.28;44.88;;;359.30;2048.00;;;;;;5040146;28;20051;-72
2023/04/09 10:01:43;;;;;;;62.15;49.30;;;358.80;2073.60;;;;;;5049011;28;20434;-72
2023/04/09 10:04:13;;;;;;;76.97;51.55;;;358.50;2073.60;;;;;;5049234;28;20032;-73
2023/04/09 10:06:42;;;;;;;69.10;48.85;;;358.50;2099.20;;;;;;5049360;28;20497;-73
2023/04/09 10:09:10;;;;;;;65.63;49.90;;;358.40;2099.20;;;;;;5049367;28;20027;-74
2023/04/09 10:11:36;;;;;;;86.47;58.90;;;358.70;2099.20;;;;;;5023508;28;20025;-71
2023/04/09 10:14:04;;;;;;;77.70;54.72;;;358.70;2073.60;;;;;;5050753;28;20020;-75
2023/04/09 10:16:30;;;;;;;126.60;85.30;;;358.70;2073.60;;;;;;5050517;28;20048;-75
2023/04/09 10:18:57;;;;;;;107.40;68.43;;;358.60;2073.60;;;;;;5051263;28;20072;-72
2023/04/09 10:21:39;;;;;;;81.63;56.90;;;358.40;2124.80;;;;;;5051307;28;20356;-73
2023/04/09 10:24:07;;;;;;;53.42;42.17;;;333.60;2124.80;;;;;;5051222;28;20025;-74
2023/04/09 10:26:35;;;;;;;96.10;66.65;;;333.30;2176.00;;;;;;5050997;28;20033;-71
2023/04/09 10:29:10;;;;;;;86.78;52.35;;;333.30;2201.60;;;;;;5049498;28;20021;-74
2023/04/09 10:31:49;;;;;;;91.40;67.22;;;333.20;2227.20;;;;;;5049486;28;20071;-74
2023/04/09 10:34:20;;;;;;;74.93;53.55;;;333.30;2201.60;;;;;;5049922;28;20529;-74
2023/04/09 10:36:53;;;;;;;84.57;58.85;;;333.50;2150.40;;;;;;5036040;28;20025;-74
2023/04/09 10:39:19;;;;;;;76.75;56.38;;;333.60;2176.00;;;;;;5049316;28;20048;-74
2023/04/09 10:41:47;;;;;;;77.15;59.42;;;333.20;2201.60;;;;;;5049214;28;20426;-72
2023/04/09 10:44:26;;;;;;;78.50;54.97;;;333.40;2176.00;;;;;;5049454;28;20029;-74
2023/04/09 10:46:54;;;;;;;79.60;60.08;;;333.70;2176.00;;;;;;5049674;28;20025;-74
2023/04/09 10:49:25;;;;;;;59.47;45.60;;;358.40;2124.80;;;;;;5049199;28;20028;-73
2023/04/09 10:52:09;;;;;;;47.95;33.83;;;358.70;2124.80;;;;;;5049268;28;20039;-73
2023/04/09 10:54:45;;;;;;;52.88;43.28;;;358.80;2048.00;;;;;;5048910;28;20025;-72
2023/04/09 10:57:14;;;;;;;53.35;41.00;;;359.10;2048.00;;;;;;5049106;28;20472;-74
2023/04/09 10:59:44;;;;;;;57.15;44.92;;;384.00;2022.40;;;;;;5049681;28;20017;-73
2023/04/09 11:02:38;;;;;;;44.40;35.97;;;384.30;1971.20;;;;;;5049019;28;20025;-72
2023/04/09 11:05:16;;;;;;;37.30;29.80;;;384.70;1920.00;;;;;;5028252;28;20404;-72
2023/04/09 11:07:56;;;;;;;238.45;212.75;;;359.30;1971.20;;;;;;5028630;28;20523;-72
2023/04/09 11:10:21;;;;;;;183.93;152.75;;;384.70;1945.60;;;;;;5029039;28;20025;-75
2023/04/09 11:12:48;;;;;;;62.38;45.25;;;409.70;1945.60;;;;;;5028590;28;20460;-76
2023/04/09 11:15:18;;;;;;;46.30;36.97;;;384.90;1920.00;;;;;;5043364;28;20422;-72
2023/04/09 11:17:45;;;;;;;34.40;28.65;;;384.90;1894.40;;;;;;5035792;28;20025;-75
2023/04/09 11:20:13;;;;;;;55.90;44.28;;;384.70;1894.40;;;;;;5050721;28;20025;-74
2023/04/09 11:22:39;;;;;;;38.20;30.77;;;384.80;1920.00;;;;;;5050092;28;20017;-75
2023/04/09 11:25:05;;;;;;;49.38;39.92;;;384.90;1894.40;;;;;;5049993;28;20033;-75
2023/04/09 11:27:36;;;;;;;40.70;35.83;;;384.80;1894.40;;;;;;5050081;28;20372;-75
2023/04/09 11:30:02;;;;;;;44.42;37.22;;;384.70;1920.00;;;;;;5050490;28;20546;-75
2023/04/09 11:32:30;;;;;;;42.30;35.90;;;384.60;1894.40;;;;;;5050306;28;20542;-72
2023/04/09 11:34:56;;;;;;;49.65;43.78;;;384.70;1894.40;;;;;;5049739;28;20548;-73
2023/04/09 11:37:22;;;;;;;39.50;33.08;;;384.70;1920.00;;;;;;5050362;28;20029;-74
2023/04/09 11:39:52;;;;;;;38.85;31.30;;;384.70;1894.40;;;;;;5049764;28;20052;-75
2023/04/09 11:42:19;;;;;;;52.22;40.85;;;384.70;1920.00;;;;;;5049342;28;20113;-76
2023/04/09 11:44:45;;;;;;;47.10;39.42;;;384.40;1894.40;;;;;;5050067;28;20021;-74
2023/04/09 11:47:13;;;;;;;41.65;32.97;;;384.00;1945.60;;;;;;5049584;28;20115;-76
2023/04/09 11:49:39;;;;;;;39.60;33.75;;;384.60;1920.00;;;;;;5049611;28;20021;-74
2023/04/09 11:52:05;;;;;;;45.22;37.85;;;384.30;1920.00;;;;;;5023642;28;20029;-75
2023/04/09 11:54:32;;;;;;;50.00;39.65;;;359.10;1945.60;;;;;;5049792;28;20025;-75
2023/04/09 11:56:59;;;;;;;50.70;41.47;;;384.10;1920.00;;;;;;5023132;28;20144;-75
2023/04/09 11:59:24;;;;;;;59.20;48.78;;;384.30;1920.00;;;;;;5049873;28;20356;-75
2023/04/09 12:01:50;;;;;;;41.80;35.40;;;359.30;1945.60;;;;;;5049352;28;20025;-75